Barkley Regional Airport
KPAH : rendu visible

Aérodrome :











RETROUVEZ-NOUS SUR...

 
LOGIN :

S'inscrire | Disclaimer

   EN    FR    IT 

 









Légende :    VFR   VFR Marginal   IFR   IFR Intensif   IFR Très Intensif
Visi : 
Plafond : 
>= 8 km
>= 3000ft
5 à 8 km
1000 à 3000 ft
1500m à 5 km
500 à 1000 ft
800 à 1500m
200 à 500 ft
< 800m
< 200 ft
Symboles :   Orages  Brouillard  Fortes neiges  Fortes précipitations  Vent > 20 kt






- Altitude de l'aérodrome : 410 ft
- Code IATA : PAH


KPAH - Barkley Regional

DERNIER METAR :
  • 150653Z AUTO 00000KT 10SM CLR M02/M04 A3037 RMK AO2 SLP286 T10171044

METARs EXPIRÉS :
  • 150553Z AUTO 01004KT 10SM CLR M01/M04 A3037 RMK AO2 SLP285 T10061044 10044 21011 401001028 50004
  • 150453Z 02003KT 10SM CLR 00/M04 A3037 RMK AO2 SLP286 T00001044

TAF KPAH
Valide du 15 à 06h jusqu'au 16 à 06h UTC


150520Z 1506/1606 VRB03KT P6SM SKC
FM151500 01006KT P6SM SKC
FM152300 VRB03KT P6SM FEW250



MET'MAP, la Météo Aéronautique d'un coup d'oeil ! - Copyright ORBIFLY Décembre 2007 - Disclaimer

ORBIFLY MET'MAP TEAM :

Programmation & Développement : Alexandra Zaïnal
Conception & Développement : Baudouin d'Aumeries
Co-Programmation & Développement : Marc-Olivier Méhu
Soutien technique & logistique : Manuel Goepfert

Contact : metmap@orbifly.com




SOURCES & CREDITS :

   NOAA       Earth
Advisory